Time;durP1;ratioP1;P1;durP2;ratioP2;P2;SDS_P1;SDS_P2;PMS_P1;PMS_P2;Temp;Humidity;BMP_temperature;BMP_pressure;BME280_temperature;BME280_humidity;BME280_pressure;Samples;Min_cycle;Max_cycle;Signal;HPM_P1;HPM_P2
2022/02/22 00:01:15;;;;;;;0.50;0.40;;;6.20;99.90;;;;;;4996677;28;20231;-77
2022/02/22 00:03:42;;;;;;;1.40;1.40;;;6.20;99.90;;;;;;4996491;28;20752;-77
2022/02/22 00:06:09;;;;;;;1.35;1.05;;;6.10;99.90;;;;;;4997035;28;20197;-76
2022/02/22 00:08:37;;;;;;;0.50;0.40;;;6.10;99.90;;;;;;4996162;28;20225;-76
2022/02/22 00:11:03;;;;;;;4.07;3.25;;;6.10;99.90;;;;;;4995786;28;20201;-77
2022/02/22 00:13:31;;;;;;;0.73;0.73;;;6.10;99.90;;;;;;4996334;28;20193;-77
2022/02/22 00:15:59;;;;;;;2.47;2.38;;;6.00;99.90;;;;;;4996208;28;20247;-77
2022/02/22 00:18:26;;;;;;;15.93;0.82;;;6.00;99.90;;;;;;4995818;28;20222;-78
2022/02/22 00:20:52;;;;;;;0.50;0.40;;;6.10;99.90;;;;;;4995047;28;20228;-77
2022/02/22 00:23:19;;;;;;;3.15;2.25;;;6.10;99.90;;;;;;4995338;28;20224;-78
2022/02/22 00:25:47;;;;;;;2.45;0.60;;;6.10;99.90;;;;;;4996000;28;20200;-78
2022/02/22 00:28:14;;;;;;;0.70;0.70;;;6.10;99.90;;;;;;4995678;28;20252;-77
2022/02/22 00:30:41;;;;;;;1.60;1.08;;;6.10;99.90;;;;;;4994762;28;20548;-78
2022/02/22 00:33:08;;;;;;;0.50;0.40;;;6.00;99.90;;;;;;4995491;28;20194;-78
2022/02/22 00:35:35;;;;;;;0.50;0.50;;;5.80;99.90;;;;;;4995159;28;20200;-78
2022/02/22 00:38:02;;;;;;;0.50;0.50;;;5.50;99.90;;;;;;4995190;28;20231;-77
2022/02/22 00:40:28;;;;;;;0.68;0.68;;;5.20;99.90;;;;;;4995499;28;20693;-77
2022/02/22 00:42:56;;;;;;;0.50;0.50;;;5.00;99.90;;;;;;4996041;28;20725;-77
2022/02/22 00:45:23;;;;;;;0.50;0.40;;;4.70;99.90;;;;;;4996232;28;20204;-79
2022/02/22 00:47:50;;;;;;;0.50;0.40;;;4.60;99.90;;;;;;4997229;28;20217;-77
2022/02/22 00:50:16;;;;;;;0.50;0.40;;;4.50;99.90;;;;;;4996835;28;20204;-77
2022/02/22 00:52:43;;;;;;;0.50;0.40;;;4.50;99.90;;;;;;4996910;28;20244;-78
2022/02/22 00:55:10;;;;;;;0.50;0.40;;;4.40;99.90;;;;;;4996509;28;20271;-78
2022/02/22 00:57:41;;;;;;;0.50;0.40;;;4.40;99.90;;;;;;4996534;28;21020;-79
2022/02/22 01:00:11;;;;;;;0.50;0.40;;;4.40;99.90;;;;;;4996385;28;20203;-77
2022/02/22 01:02:38;;;;;;;0.50;0.40;;;4.50;99.90;;;;;;4996422;28;20248;-78
2022/02/22 01:05:06;;;;;;;1.98;0.77;;;4.50;99.90;;;;;;4996450;28;20204;-77
2022/02/22 01:07:33;;;;;;;0.50;0.40;;;4.60;99.90;;;;;;4996315;28;20634;-78
2022/02/22 01:10:00;;;;;;;0.50;0.40;;;4.60;99.90;;;;;;4996297;28;20208;-78
2022/02/22 01:12:27;;;;;;;2.63;0.80;;;4.60;99.90;;;;;;4995411;28;20197;-78
2022/02/22 01:14:53;;;;;;;0.50;0.40;;;4.70;99.90;;;;;;4996156;28;20544;-77
2022/02/22 01:17:22;;;;;;;0.80;0.80;;;4.70;99.90;;;;;;4995969;28;20224;-77
2022/02/22 01:19:49;;;;;;;0.50;0.40;;;4.70;99.90;;;;;;4995761;28;20200;-78
2022/02/22 01:22:16;;;;;;;0.60;0.60;;;4.80;99.90;;;;;;4995086;28;20192;-78
2022/02/22 01:24:42;;;;;;;3.20;3.00;;;4.80;99.90;;;;;;4995520;28;20196;-77
2022/02/22 01:27:09;;;;;;;2.35;1.55;;;4.80;99.90;;;;;;4995996;28;20671;-78
2022/02/22 01:29:36;;;;;;;0.50;0.40;;;4.70;99.90;;;;;;4995721;28;20638;-77
2022/02/22 01:32:03;;;;;;;0.50;0.40;;;4.70;99.90;;;;;;4995588;28;20732;-77
2022/02/22 01:34:31;;;;;;;0.50;0.40;;;4.60;99.90;;;;;;4993720;28;20193;-78
2022/02/22 01:36:58;;;;;;;1.40;1.30;;;4.70;99.90;;;;;;4995940;28;20736;-78
2022/02/22 01:39:24;;;;;;;0.63;0.63;;;4.70;99.90;;;;;;4995016;28;20729;-79
2022/02/22 01:41:51;;;;;;;0.60;0.60;;;4.70;99.90;;;;;;4995201;28;20197;-77
2022/02/22 01:44:21;;;;;;;0.50;0.40;;;4.70;99.90;;;;;;4995130;28;20231;-78
2022/02/22 01:46:55;;;;;;;0.50;0.40;;;4.70;99.90;;;;;;4995148;28;20204;-77
2022/02/22 01:49:22;;;;;;;0.50;0.50;;;4.60;99.90;;;;;;4995228;28;20196;-77
2022/02/22 01:51:50;;;;;;;0.50;0.50;;;4.60;99.90;;;;;;4994949;28;20255;-78
2022/02/22 01:54:17;;;;;;;10.23;9.68;;;4.50;99.90;;;;;;4994766;28;20201;-78
2022/02/22 01:56:43;;;;;;;6.00;0.65;;;4.50;99.90;;;;;;4994748;28;20196;-77
2022/02/22 01:59:10;;;;;;;0.50;0.40;;;4.50;99.90;;;;;;4993849;28;20220;-77
2022/02/22 02:01:37;;;;;;;1.60;1.30;;;4.50;99.90;;;;;;4994810;28;20638;-77
2022/02/22 02:04:05;;;;;;;0.50;0.40;;;4.40;99.90;;;;;;4994688;28;20262;-79
2022/02/22 02:06:33;;;;;;;0.50;0.40;;;4.40;99.90;;;;;;4994726;28;20259;-77
2022/02/22 02:09:01;;;;;;;0.60;0.60;;;4.40;99.90;;;;;;4993937;28;20212;-78
2022/02/22 02:11:27;;;;;;;0.82;0.82;;;4.40;99.90;;;;;;4994355;28;20193;-77
2022/02/22 02:13:54;;;;;;;0.50;0.40;;;4.40;99.90;;;;;;4994665;28;20626;-77
2022/02/22 02:16:21;;;;;;;0.50;0.40;;;4.40;99.90;;;;;;4994505;28;20215;-78
2022/02/22 02:18:47;;;;;;;0.60;0.60;;;4.40;99.90;;;;;;4994015;28;20220;-75
2022/02/22 02:21:16;;;;;;;0.95;0.80;;;4.40;99.90;;;;;;4994038;28;20200;-78
2022/02/22 02:23:44;;;;;;;3.83;3.00;;;4.40;99.90;;;;;;4993112;28;20838;-78
2022/02/22 02:26:11;;;;;;;0.50;0.40;;;4.40;99.90;;;;;;4993845;28;20204;-78
2022/02/22 02:28:37;;;;;;;4.13;1.40;;;4.30;99.90;;;;;;4993791;28;20267;-76
2022/02/22 02:31:04;;;;;;;9.38;2.00;;;4.30;99.90;;;;;;4994009;28;20208;-77
2022/02/22 02:33:31;;;;;;;0.90;0.90;;;4.30;99.90;;;;;;4994114;28;20200;-78
2022/02/22 02:35:57;;;;;;;3.65;3.40;;;4.30;99.90;;;;;;4993950;28;20197;-78
2022/02/22 02:38:24;;;;;;;0.50;0.40;;;4.30;99.90;;;;;;4994026;28;20247;-78
2022/02/22 02:40:52;;;;;;;0.50;0.40;;;4.20;99.90;;;;;;4993355;28;20212;-77
2022/02/22 02:43:19;;;;;;;0.50;0.40;;;4.30;99.90;;;;;;4993277;28;20219;-78
2022/02/22 02:45:45;;;;;;;0.50;0.40;;;4.30;99.90;;;;;;4993864;28;20200;-77
2022/02/22 02:48:12;;;;;;;0.50;0.40;;;4.20;99.90;;;;;;4993873;28;20220;-77
2022/02/22 02:50:39;;;;;;;0.50;0.40;;;4.20;99.90;;;;;;4993464;28;20208;-77
2022/02/22 02:53:05;;;;;;;8.07;1.35;;;4.20;99.90;;;;;;4993298;28;20200;-77
2022/02/22 02:55:32;;;;;;;33.30;1.85;;;4.20;99.90;;;;;;4993693;28;20197;-77
2022/02/22 02:58:00;;;;;;;0.93;0.93;;;4.20;99.90;;;;;;4993590;28;20251;-77
2022/02/22 03:00:27;;;;;;;0.80;0.80;;;4.30;99.90;;;;;;4993168;28;20224;-77
2022/02/22 03:02:53;;;;;;;0.50;0.40;;;4.30;99.90;;;;;;4993339;28;20193;-77
2022/02/22 03:05:21;;;;;;;0.60;0.60;;;4.20;99.90;;;;;;4992751;28;20196;-78
2022/02/22 03:07:47;;;;;;;4.00;1.80;;;4.20;99.90;;;;;;4993958;28;20244;-78
2022/02/22 03:10:14;;;;;;;0.50;0.50;;;4.20;99.90;;;;;;4993689;28;20208;-78
2022/02/22 03:12:41;;;;;;;0.70;0.60;;;4.20;99.90;;;;;;4993789;28;20602;-78
2022/02/22 03:15:10;;;;;;;1.05;0.55;;;4.20;99.90;;;;;;4993481;28;20189;-75
2022/02/22 03:17:37;;;;;;;0.50;0.40;;;4.20;99.90;;;;;;4993646;28;20298;-77
2022/02/22 03:20:05;;;;;;;0.57;0.55;;;4.10;99.90;;;;;;4993433;28;20232;-77
2022/02/22 03:22:32;;;;;;;0.73;0.73;;;4.10;99.90;;;;;;4993080;28;20204;-76
2022/02/22 03:24:59;;;;;;;0.50;0.50;;;4.00;99.90;;;;;;4993960;28;20240;-79
2022/02/22 03:27:25;;;;;;;0.50;0.40;;;4.00;99.90;;;;;;4993106;28;20225;-77
2022/02/22 03:29:52;;;;;;;0.50;0.40;;;4.00;99.90;;;;;;4992986;28;20200;-77
2022/02/22 03:32:20;;;;;;;2.50;2.13;;;3.90;99.90;;;;;;4993437;28;20193;-78
2022/02/22 03:34:47;;;;;;;0.50;0.40;;;4.00;99.90;;;;;;4994172;28;20594;-77
2022/02/22 03:37:13;;;;;;;1.20;1.20;;;4.00;99.90;;;;;;4997011;28;20322;-77
2022/02/22 03:39:40;;;;;;;0.50;0.40;;;4.00;99.90;;;;;;4996623;28;20201;-78
2022/02/22 03:42:07;;;;;;;0.50;0.40;;;4.00;99.90;;;;;;4997074;28;20201;-77
2022/02/22 03:44:34;;;;;;;0.50;0.40;;;4.00;99.90;;;;;;4997216;28;20231;-77
2022/02/22 03:47:00;;;;;;;0.50;0.40;;;4.00;99.90;;;;;;5000836;28;20200;-78
2022/02/22 03:49:29;;;;;;;0.50;0.40;;;4.00;99.90;;;;;;4997878;28;20670;-78
2022/02/22 03:51:55;;;;;;;0.50;0.40;;;4.00;99.90;;;;;;4998141;28;20246;-77
2022/02/22 03:54:22;;;;;;;0.50;0.50;;;3.90;99.90;;;;;;4998201;28;20202;-79
2022/02/22 03:56:48;;;;;;;0.50;0.40;;;3.90;99.90;;;;;;4998160;28;20803;-78
2022/02/22 03:59:15;;;;;;;0.50;0.40;;;3.90;99.90;;;;;;4997312;28;20219;-78
2022/02/22 04:01:42;;;;;;;0.50;0.40;;;3.90;99.90;;;;;;4995845;28;20203;-78
2022/02/22 04:04:08;;;;;;;0.50;0.30;;;3.80;99.90;;;;;;4996109;28;20343;-79
2022/02/22 04:06:36;;;;;;;0.50;0.40;;;3.80;99.90;;;;;;4995842;28;20201;-78
2022/02/22 04:09:03;;;;;;;0.50;0.50;;;3.80;99.90;;;;;;4995739;28;20560;-77
2022/02/22 04:11:30;;;;;;;0.50;0.40;;;3.80;99.90;;;;;;4989218;28;20203;-78
2022/02/22 04:13:57;;;;;;;0.50;0.40;;;3.80;99.90;;;;;;5011928;28;20669;-79
2022/02/22 04:16:23;;;;;;;0.50;0.40;;;3.80;99.90;;;;;;5014927;28;20204;-77
2022/02/22 04:18:50;;;;;;;4.45;2.50;;;3.80;99.90;;;;;;5014649;28;20246;-79
2022/02/22 04:21:17;;;;;;;0.50;0.40;;;3.80;99.90;;;;;;5014845;28;20199;-78
2022/02/22 04:23:45;;;;;;;0.50;0.40;;;3.90;99.90;;;;;;5014144;28;20222;-78
2022/02/22 04:26:11;;;;;;;0.60;0.60;;;3.90;99.90;;;;;;5015012;28;20199;-79
2022/02/22 04:28:38;;;;;;;0.50;0.40;;;3.90;99.90;;;;;;5015029;28;20219;-77
2022/02/22 04:31:05;;;;;;;0.50;0.40;;;3.90;99.90;;;;;;5014570;28;20809;-78
2022/02/22 04:33:31;;;;;;;0.50;0.40;;;3.90;99.90;;;;;;5015047;28;20200;-79
2022/02/22 04:35:58;;;;;;;0.50;0.40;;;3.90;99.90;;;;;;5004453;28;20205;-78
2022/02/22 04:38:25;;;;;;;0.50;0.40;;;3.90;99.90;;;;;;4994106;28;20721;-78
2022/02/22 04:40:53;;;;;;;0.50;0.40;;;3.80;99.90;;;;;;4994464;28;20694;-78
2022/02/22 04:43:19;;;;;;;0.50;0.40;;;3.80;99.90;;;;;;4995354;28;20205;-77
2022/02/22 04:45:46;;;;;;;1.48;1.48;;;3.80;99.90;;;;;;4994861;28;20714;-79
2022/02/22 04:48:13;;;;;;;0.95;0.95;;;3.80;99.90;;;;;;4994883;28;20572;-78
2022/02/22 04:50:40;;;;;;;0.50;0.47;;;3.80;99.90;;;;;;4995063;28;20204;-78
2022/02/22 04:53:09;;;;;;;0.50;0.40;;;3.80;99.90;;;;;;4995680;28;20216;-78
2022/02/22 04:55:36;;;;;;;0.50;0.40;;;3.80;99.90;;;;;;4995538;28;20203;-79
2022/02/22 04:58:04;;;;;;;0.50;0.40;;;3.80;99.90;;;;;;4994983;28;20231;-78
2022/02/22 05:00:30;;;;;;;0.50;0.40;;;3.80;99.90;;;;;;4994536;28;20670;-79
2022/02/22 05:02:57;;;;;;;0.50;0.40;;;3.80;99.90;;;;;;4995363;28;20627;-79
2022/02/22 05:05:24;;;;;;;0.50;0.40;;;3.90;99.90;;;;;;4994954;28;20228;-78
2022/02/22 05:07:51;;;;;;;0.50;0.50;;;3.90;99.90;;;;;;4994931;28;20227;-78
2022/02/22 05:10:17;;;;;;;0.45;0.40;;;3.90;99.90;;;;;;4995954;28;20200;-77
2022/02/22 05:12:44;;;;;;;0.47;0.40;;;3.90;99.90;;;;;;4995409;28;20195;-79
2022/02/22 05:15:12;;;;;;;0.50;0.40;;;4.00;99.90;;;;;;4987120;28;20192;-78
2022/02/22 05:17:39;;;;;;;0.50;0.40;;;4.00;99.90;;;;;;4975781;28;20229;-77
2022/02/22 05:20:08;;;;;;;0.50;0.40;;;4.00;99.90;;;;;;4975391;28;20204;-78
2022/02/22 05:22:42;;;;;;;0.40;0.30;;;4.00;99.90;;;;;;4974827;28;20203;-81
2022/02/22 05:25:09;;;;;;;0.50;0.40;;;3.90;99.90;;;;;;4974675;28;20627;-78
2022/02/22 05:27:36;;;;;;;0.50;0.40;;;3.90;99.90;;;;;;4974609;28;20221;-79
2022/02/22 05:30:04;;;;;;;0.50;0.40;;;3.80;99.90;;;;;;4987159;28;20208;-78
2022/02/22 05:32:32;;;;;;;0.50;0.40;;;3.80;99.90;;;;;;4994970;28;20983;-79
2022/02/22 05:35:00;;;;;;;0.50;0.40;;;3.80;99.90;;;;;;4992121;28;20197;-79
2022/02/22 05:37:27;;;;;;;0.50;0.40;;;3.80;99.90;;;;;;4993010;28;20228;-78
2022/02/22 05:39:55;;;;;;;0.50;0.40;;;3.80;99.90;;;;;;4994167;28;20211;-79
2022/02/22 05:42:22;;;;;;;0.50;0.40;;;3.80;99.90;;;;;;4993925;28;20237;-79
2022/02/22 05:44:49;;;;;;;0.50;0.50;;;3.80;99.90;;;;;;4994116;28;20224;-78
2022/02/22 05:47:16;;;;;;;2.85;0.60;;;3.80;99.90;;;;;;4994043;28;20259;-78
2022/02/22 05:49:44;;;;;;;0.50;0.40;;;3.90;99.90;;;;;;4994468;28;20199;-79
2022/02/22 05:52:11;;;;;;;0.40;0.40;;;3.90;99.90;;;;;;4994421;28;20199;-79
2022/02/22 05:54:37;;;;;;;0.50;0.40;;;3.90;99.90;;;;;;4993806;28;20223;-78
2022/02/22 05:57:05;;;;;;;0.47;0.40;;;3.90;99.90;;;;;;4994614;28;20259;-79
2022/02/22 05:59:31;;;;;;;0.50;0.38;;;3.90;99.90;;;;;;4993964;28;20196;-77
2022/02/22 06:01:58;;;;;;;0.50;0.40;;;3.80;99.90;;;;;;4993517;28;20197;-77
2022/02/22 06:04:26;;;;;;;0.50;0.40;;;3.80;99.90;;;;;;4993516;28;20212;-80
2022/02/22 06:06:54;;;;;;;0.82;0.82;;;3.90;99.90;;;;;;4993598;28;20287;-78
2022/02/22 06:09:21;;;;;;;0.45;0.40;;;3.90;99.90;;;;;;4992608;28;20628;-77
2022/02/22 06:11:48;;;;;;;0.45;0.40;;;3.90;99.90;;;;;;4993112;28;20201;-78
2022/02/22 06:14:15;;;;;;;0.40;0.40;;;3.80;99.90;;;;;;4992699;28;20813;-80
2022/02/22 06:16:42;;;;;;;0.50;0.40;;;3.70;99.90;;;;;;4993326;28;20207;-78
2022/02/22 06:19:09;;;;;;;0.50;0.40;;;3.70;99.90;;;;;;4992924;28;20215;-77
2022/02/22 06:21:36;;;;;;;0.50;0.40;;;3.70;99.90;;;;;;4993569;28;20200;-78
2022/02/22 06:24:05;;;;;;;1.50;0.77;;;3.70;99.90;;;;;;4993365;28;20196;-78
2022/02/22 06:26:32;;;;;;;1.77;1.30;;;3.70;99.90;;;;;;4993920;28;20654;-78
2022/02/22 06:28:58;;;;;;;0.50;0.40;;;3.60;99.90;;;;;;4993824;28;20216;-78
2022/02/22 06:31:25;;;;;;;0.47;0.40;;;3.60;99.90;;;;;;4993667;28;20196;-79
2022/02/22 06:33:52;;;;;;;0.50;0.50;;;3.60;99.90;;;;;;4994074;28;20200;-78
2022/02/22 06:36:19;;;;;;;0.50;0.40;;;3.60;99.90;;;;;;4994006;28;20200;-79
2022/02/22 06:38:45;;;;;;;3.90;3.30;;;3.70;99.90;;;;;;4993215;28;20232;-77
2022/02/22 06:41:14;;;;;;;0.40;0.40;;;3.70;99.90;;;;;;4993258;28;20220;-79
2022/02/22 06:43:41;;;;;;;2.05;0.50;;;3.70;99.90;;;;;;4989868;28;20199;-78
2022/02/22 06:46:08;;;;;;;0.40;0.40;;;3.70;99.90;;;;;;4981359;28;20228;-77
2022/02/22 06:48:34;;;;;;;11.30;1.13;;;3.80;99.90;;;;;;4975935;28;20221;-78
2022/02/22 06:51:01;;;;;;;0.40;0.40;;;3.90;99.90;;;;;;4975695;28;20615;-77
2022/02/22 06:53:28;;;;;;;1.35;1.35;;;3.90;99.90;;;;;;4980736;28;20208;-79
2022/02/22 06:55:54;;;;;;;0.40;0.40;;;4.00;99.90;;;;;;4975692;28;20201;-79
2022/02/22 06:58:22;;;;;;;0.43;0.40;;;4.00;99.90;;;;;;4974596;28;20220;-78
2022/02/22 07:00:51;;;;;;;0.40;0.40;;;4.00;99.90;;;;;;4972623;28;20197;-78
2022/02/22 07:03:17;;;;;;;0.40;0.40;;;4.00;99.90;;;;;;4997847;28;20200;-78
2022/02/22 07:05:44;;;;;;;5.22;0.63;;;4.00;99.90;;;;;;5010625;28;20216;-78
2022/02/22 07:08:11;;;;;;;0.40;0.30;;;4.00;99.90;;;;;;5012375;28;20579;-78
2022/02/22 07:10:38;;;;;;;0.40;0.40;;;4.00;99.90;;;;;;5014158;28;20200;-78
2022/02/22 07:13:05;;;;;;;0.40;0.40;;;4.00;99.90;;;;;;5016638;28;20238;-76
2022/02/22 07:15:33;;;;;;;0.45;0.40;;;4.00;99.90;;;;;;5015932;28;20192;-78
2022/02/22 07:18:07;;;;;;;1.85;1.10;;;4.10;99.90;;;;;;5016288;28;20274;-80
2022/02/22 07:20:34;;;;;;;69.07;2.42;;;4.10;99.90;;;;;;5015739;28;20202;-78
2022/02/22 07:23:01;;;;;;;0.50;0.50;;;4.10;99.90;;;;;;5015842;28;20558;-78
2022/02/22 07:25:29;;;;;;;4.47;4.18;;;4.00;99.90;;;;;;5016451;28;20215;-78
2022/02/22 07:27:57;;;;;;;0.50;0.40;;;4.10;99.90;;;;;;5017674;28;20648;-77
2022/02/22 07:30:24;;;;;;;0.52;0.52;;;4.20;99.90;;;;;;5015992;28;20203;-78
2022/02/22 07:32:57;;;;;;;1.90;1.48;;;4.20;99.90;;;;;;5015495;28;20204;-77
2022/02/22 07:35:23;;;;;;;0.50;0.40;;;4.20;99.90;;;;;;5016667;28;20199;-78
2022/02/22 07:37:50;;;;;;;0.40;0.40;;;4.30;99.90;;;;;;5015504;28;20223;-77
2022/02/22 07:40:18;;;;;;;2.05;0.85;;;4.70;99.90;;;;;;5017386;28;20228;-77
2022/02/22 07:42:46;;;;;;;0.68;0.68;;;5.10;99.90;;;;;;5015585;28;20558;-79
2022/02/22 07:45:14;;;;;;;1.00;0.85;;;5.50;99.90;;;;;;5016605;28;20701;-77
2022/02/22 07:47:42;;;;;;;1.73;1.35;;;5.60;99.90;;;;;;5014988;28;20219;-78
2022/02/22 07:50:11;;;;;;;4.55;2.67;;;5.50;99.90;;;;;;5014962;28;20200;-76
2022/02/22 07:52:38;;;;;;;0.50;0.40;;;5.40;99.90;;;;;;5016117;28;20200;-78
2022/02/22 07:55:06;;;;;;;1.45;1.13;;;5.30;99.90;;;;;;5014072;28;20200;-78
2022/02/22 07:57:33;;;;;;;2.95;2.70;;;5.30;99.90;;;;;;4995984;28;20213;-78
2022/02/22 08:00:00;;;;;;;4.25;2.05;;;5.20;99.90;;;;;;4999034;28;20193;-77
2022/02/22 08:02:27;;;;;;;0.50;0.40;;;5.20;99.90;;;;;;5004592;28;20197;-76
2022/02/22 08:04:53;;;;;;;1.10;1.10;;;5.20;99.90;;;;;;5003419;28;20279;-78
2022/02/22 08:07:22;;;;;;;0.60;0.60;;;5.20;99.90;;;;;;5004132;28;20248;-79
2022/02/22 08:09:49;;;;;;;5.30;0.98;;;5.20;99.90;;;;;;5015133;28;20196;-80
2022/02/22 08:12:16;;;;;;;1.25;1.25;;;5.20;99.90;;;;;;5015207;28;20185;-79
2022/02/22 08:14:43;;;;;;;30.35;4.72;;;5.20;99.90;;;;;;5015649;28;20196;-80
2022/02/22 08:17:09;;;;;;;0.50;0.50;;;5.10;99.90;;;;;;5016074;28;20200;-80
2022/02/22 08:19:36;;;;;;;9.88;3.55;;;5.20;99.90;;;;;;5015303;28;20220;-80
2022/02/22 08:22:03;;;;;;;0.60;0.50;;;5.30;99.90;;;;;;5015963;28;20317;-76
2022/02/22 08:24:31;;;;;;;1.73;1.63;;;5.40;99.90;;;;;;5016784;28;20196;-80
2022/02/22 08:26:59;;;;;;;1.50;0.90;;;5.40;99.90;;;;;;5000807;28;20709;-79
2022/02/22 08:29:27;;;;;;;1.90;1.48;;;5.70;99.90;;;;;;4996764;28;20193;-78
2022/02/22 08:31:53;;;;;;;2.55;2.35;;;6.00;99.90;;;;;;4999914;28;20726;-80
2022/02/22 08:34:20;;;;;;;0.95;0.95;;;6.20;99.90;;;;;;4997289;28;20204;-79
2022/02/22 08:36:47;;;;;;;1.35;0.50;;;6.00;99.90;;;;;;4996723;28;20197;-79
2022/02/22 08:39:14;;;;;;;1.05;1.05;;;5.90;99.90;;;;;;4996002;28;20221;-78
2022/02/22 08:41:42;;;;;;;1.65;1.20;;;5.90;99.90;;;;;;4997099;28;20197;-79
2022/02/22 08:44:10;;;;;;;2.35;1.48;;;6.00;99.90;;;;;;4997172;28;20235;-79
2022/02/22 08:46:37;;;;;;;6.82;3.08;;;6.00;99.90;;;;;;4999546;28;20283;-79
2022/02/22 08:49:04;;;;;;;0.98;0.80;;;6.10;99.90;;;;;;4997736;28;20216;-80
2022/02/22 08:51:31;;;;;;;1.08;1.05;;;6.40;99.90;;;;;;4997619;28;20200;-79
2022/02/22 08:53:58;;;;;;;6.82;3.30;;;6.70;99.90;;;;;;4998473;28;20209;-79
2022/02/22 08:56:24;;;;;;;7.38;1.88;;;6.70;99.90;;;;;;4996565;28;20193;-79
2022/02/22 08:58:53;;;;;;;0.80;0.80;;;6.70;99.90;;;;;;4997108;28;20602;-78
2022/02/22 09:01:20;;;;;;;1.02;1.02;;;6.90;99.90;;;;;;5012141;28;20250;-79
2022/02/22 09:03:47;;;;;;;5.45;2.60;;;6.90;99.90;;;;;;5015071;28;20200;-79
2022/02/22 09:06:14;;;;;;;3.35;1.60;;;6.60;99.90;;;;;;5014981;28;20211;-79
2022/02/22 09:08:41;;;;;;;1.98;0.88;;;6.50;99.90;;;;;;5015179;28;20285;-80
2022/02/22 09:11:07;;;;;;;2.15;2.05;;;6.40;99.90;;;;;;5013981;28;20207;-79
2022/02/22 09:13:34;;;;;;;0.95;0.95;;;6.50;99.90;;;;;;5014521;28;20543;-79
2022/02/22 09:16:02;;;;;;;0.95;0.95;;;6.40;99.90;;;;;;5014816;28;20189;-79
2022/02/22 09:18:29;;;;;;;13.90;2.05;;;6.30;99.90;;;;;;5014954;28;20214;-79
2022/02/22 09:20:55;;;;;;;1.08;0.80;;;6.10;99.90;;;;;;4999865;28;20193;-79
2022/02/22 09:23:22;;;;;;;4.28;2.65;;;6.10;99.90;;;;;;4996069;28;20197;-78
2022/02/22 09:25:49;;;;;;;3.75;2.08;;;6.00;99.90;;;;;;4995964;28;20383;-80
2022/02/22 09:28:15;;;;;;;2.28;1.25;;;6.00;99.90;;;;;;4996154;28;20637;-79
2022/02/22 09:30:42;;;;;;;6.20;2.72;;;6.10;99.90;;;;;;4995038;28;20204;-79
2022/02/22 09:33:10;;;;;;;0.50;0.40;;;6.10;99.90;;;;;;4995497;28;20201;-79
2022/02/22 09:35:37;;;;;;;0.50;0.40;;;6.20;99.90;;;;;;4995693;28;20201;-80
2022/02/22 09:38:04;;;;;;;5.65;0.93;;;6.20;99.90;;;;;;4995503;28;20290;-79
2022/02/22 09:40:31;;;;;;;2.58;1.92;;;6.30;99.90;;;;;;4995874;28;20235;-79
2022/02/22 09:42:59;;;;;;;7.32;1.38;;;6.40;99.90;;;;;;4995790;28;20201;-79
2022/02/22 09:45:25;;;;;;;0.50;0.40;;;6.40;99.90;;;;;;4995076;28;20267;-77
2022/02/22 09:47:55;;;;;;;1.15;1.05;;;6.40;99.90;;;;;;4994821;28;20217;-80
2022/02/22 09:50:23;;;;;;;2.15;1.40;;;6.60;99.90;;;;;;4995326;28;20288;-79
2022/02/22 09:52:50;;;;;;;10.48;1.48;;;6.70;99.90;;;;;;4994855;28;20220;-79
2022/02/22 09:55:17;;;;;;;3.20;2.17;;;6.80;99.90;;;;;;4995474;28;20204;-80
2022/02/22 09:57:43;;;;;;;3.35;1.45;;;6.90;99.90;;;;;;4995046;28;20220;-78
2022/02/22 10:00:20;;;;;;;4.75;2.15;;;7.00;99.90;;;;;;4994948;28;20260;-77
2022/02/22 10:02:48;;;;;;;0.50;0.50;;;7.00;99.90;;;;;;4995938;28;20252;-79
2022/02/22 10:05:16;;;;;;;2.83;1.48;;;7.20;99.90;;;;;;4994932;28;20201;-79
2022/02/22 10:07:54;;;;;;;2.72;1.10;;;7.20;99.90;;;;;;4994640;28;20218;-79
2022/02/22 10:10:21;;;;;;;3.55;2.58;;;7.30;99.90;;;;;;4992891;28;20200;-80
2022/02/22 10:12:54;;;;;;;1.00;0.70;;;7.50;99.90;;;;;;4994367;28;20288;-79
2022/02/22 10:15:21;;;;;;;0.90;0.77;;;7.40;99.90;;;;;;4994256;28;20207;-79
2022/02/22 10:17:51;;;;;;;3.83;1.10;;;7.40;99.90;;;;;;4993626;28;20217;-79
2022/02/22 10:20:18;;;;;;;0.85;0.85;;;7.30;99.90;;;;;;4993050;28;20239;-77
2022/02/22 10:22:51;;;;;;;27.33;2.72;;;7.20;99.90;;;;;;4993451;28;20774;-79
2022/02/22 10:25:19;;;;;;;2.03;1.92;;;7.30;99.90;;;;;;4993238;28;20201;-78
2022/02/22 10:27:48;;;;;;;1.05;0.90;;;7.30;99.90;;;;;;4993734;28;20225;-79
2022/02/22 10:30:39;;;;;;;0.50;0.40;;;7.40;99.90;;;;;;4993272;28;20200;-79
2022/02/22 10:33:15;;;;;;;2.80;1.58;;;7.50;99.90;;;;;;4996493;28;20271;-79
2022/02/22 10:35:44;;;;;;;4.35;3.25;;;7.40;99.90;;;;;;4998801;28;20197;-77
2022/02/22 10:38:15;;;;;;;9.93;2.80;;;7.40;99.90;;;;;;4993231;28;20229;-79
2022/02/22 10:40:43;;;;;;;0.50;0.50;;;7.50;99.90;;;;;;4993043;28;20245;-78
2022/02/22 10:43:20;;;;;;;0.70;0.70;;;7.60;99.90;;;;;;4994413;28;20726;-79
2022/02/22 10:45:49;;;;;;;3.63;3.25;;;7.60;99.90;;;;;;4995648;28;20224;-78
2022/02/22 10:48:28;;;;;;;20.40;2.60;;;7.50;99.90;;;;;;4997626;28;20365;-79
2022/02/22 10:50:56;;;;;;;1.58;1.48;;;7.40;99.90;;;;;;4997347;28;20299;-79
2022/02/22 10:53:29;;;;;;;4.30;3.20;;;7.50;99.90;;;;;;5001704;28;20655;-78
2022/02/22 10:55:56;;;;;;;7.90;3.35;;;7.50;99.90;;;;;;4997099;28;20194;-78
2022/02/22 10:58:24;;;;;;;1.00;0.80;;;7.50;99.90;;;;;;4997216;28;20224;-79
2022/02/22 11:00:52;;;;;;;3.25;1.77;;;7.50;99.90;;;;;;4996621;28;20547;-79
2022/02/22 11:03:19;;;;;;;7.82;3.45;;;7.60;99.90;;;;;;4997550;28;20576;-79
2022/02/22 11:05:48;;;;;;;6.85;3.65;;;7.60;99.90;;;;;;4996966;28;20213;-78
2022/02/22 11:08:15;;;;;;;1.17;0.70;;;7.60;99.90;;;;;;4996711;28;20311;-79
2022/02/22 11:10:51;;;;;;;1.13;1.02;;;7.60;99.90;;;;;;4996806;28;20196;-79
2022/02/22 11:13:26;;;;;;;1.58;1.40;;;7.70;99.90;;;;;;4997153;28;20208;-79
2022/02/22 11:15:53;;;;;;;1.65;0.60;;;7.80;99.90;;;;;;4997027;28;20183;-79
2022/02/22 11:18:23;;;;;;;2.70;1.30;;;7.80;99.90;;;;;;4996882;28;20216;-79
2022/02/22 11:20:51;;;;;;;2.33;2.17;;;7.80;99.90;;;;;;4996794;28;20198;-76
2022/02/22 11:23:26;;;;;;;1.08;0.95;;;7.80;99.90;;;;;;4996529;28;20232;-79
2022/02/22 11:26:04;;;;;;;1.33;1.30;;;7.80;99.90;;;;;;4996672;28;20243;-78
2022/02/22 11:28:35;;;;;;;1.38;1.27;;;7.90;99.90;;;;;;4996904;28;20228;-78
2022/02/22 11:31:05;;;;;;;11.90;1.77;;;7.80;99.90;;;;;;4996814;28;20354;-76
2022/02/22 11:33:39;;;;;;;4.35;0.70;;;7.80;99.90;;;;;;4996917;28;20196;-79
2022/02/22 11:36:08;;;;;;;2.60;1.98;;;7.80;99.90;;;;;;4996013;28;20200;-79
2022/02/22 11:38:41;;;;;;;1.95;1.33;;;7.80;99.90;;;;;;4996486;28;20229;-79
2022/02/22 11:41:20;;;;;;;1.90;1.00;;;7.80;99.90;;;;;;4996427;28;20182;-78
2022/02/22 11:43:53;;;;;;;2.35;1.48;;;7.70;99.90;;;;;;4996731;28;20213;-79
2022/02/22 11:46:20;;;;;;;2.60;1.55;;;7.70;99.90;;;;;;4996171;28;20726;-79
2022/02/22 11:48:48;;;;;;;2.58;1.30;;;7.70;99.90;;;;;;4995870;28;20735;-77
2022/02/22 11:51:15;;;;;;;0.77;0.70;;;7.70;99.90;;;;;;4995904;28;20232;-79
2022/02/22 11:53:50;;;;;;;26.55;1.30;;;7.80;99.90;;;;;;4996099;28;20567;-79
2022/02/22 11:56:23;;;;;;;3.38;2.08;;;7.90;99.90;;;;;;4996367;28;20571;-79
2022/02/22 11:58:50;;;;;;;7.72;2.17;;;8.00;99.90;;;;;;4995864;28;20222;-79
2022/02/22 12:01:21;;;;;;;33.30;2.47;;;7.90;99.90;;;;;;4995710;28;20687;-79
2022/02/22 12:03:50;;;;;;;3.63;1.55;;;7.90;99.90;;;;;;4997687;28;20232;-79
2022/02/22 12:06:20;;;;;;;2.55;1.80;;;7.90;99.90;;;;;;4996827;28;20220;-79
2022/02/22 12:08:51;;;;;;;1.63;1.52;;;7.90;99.90;;;;;;4996424;28;20227;-78
2022/02/22 12:11:19;;;;;;;6.97;2.20;;;7.80;99.90;;;;;;4996890;28;20276;-78
2022/02/22 12:13:50;;;;;;;6.63;2.42;;;7.80;99.90;;;;;;4995951;28;20198;-78
2022/02/22 12:16:19;;;;;;;2.65;1.58;;;7.80;99.90;;;;;;4995937;28;20207;-79
2022/02/22 12:18:47;;;;;;;3.70;1.08;;;7.80;99.90;;;;;;4996274;28;20226;-77
2022/02/22 12:21:14;;;;;;;0.60;0.60;;;7.80;99.90;;;;;;4996032;28;20548;-79
2022/02/22 12:23:43;;;;;;;2.15;1.40;;;7.80;99.90;;;;;;4994993;28;20555;-80
2022/02/22 12:26:12;;;;;;;1.13;1.13;;;7.80;99.90;;;;;;4995989;28;20270;-76
2022/02/22 12:28:48;;;;;;;9.52;1.90;;;7.80;99.90;;;;;;4995603;28;20226;-79
2022/02/22 12:31:24;;;;;;;1.10;0.73;;;7.70;99.90;;;;;;4995630;28;20205;-78
2022/02/22 12:33:51;;;;;;;4.00;2.28;;;7.60;99.90;;;;;;4996041;28;20238;-78
2022/02/22 12:36:20;;;;;;;5.88;2.95;;;7.40;99.90;;;;;;4996135;28;20197;-79
2022/02/22 12:38:49;;;;;;;2.45;1.05;;;7.30;99.90;;;;;;4995190;28;20317;-77
2022/02/22 12:41:17;;;;;;;1.70;1.10;;;7.20;99.90;;;;;;4995446;28;20234;-80
2022/02/22 12:43:47;;;;;;;0.52;0.52;;;7.20;99.90;;;;;;4995496;28;20285;-78
2022/02/22 12:46:15;;;;;;;2.35;2.25;;;7.20;99.90;;;;;;4995609;28;20569;-79
2022/02/22 12:48:42;;;;;;;0.60;0.50;;;7.20;99.90;;;;;;4995534;28;20222;-79
2022/02/22 12:51:09;;;;;;;2.15;0.98;;;7.20;99.90;;;;;;4994859;28;20263;-79
2022/02/22 12:53:36;;;;;;;0.80;0.80;;;7.10;99.90;;;;;;4995000;28;20203;-79
2022/02/22 12:56:03;;;;;;;3.90;2.50;;;7.10;99.90;;;;;;4996292;28;20206;-78
2022/02/22 12:58:34;;;;;;;0.73;0.50;;;7.00;99.90;;;;;;4995442;28;20590;-79
2022/02/22 13:01:12;;;;;;;1.00;0.68;;;7.10;99.90;;;;;;4995369;28;20551;-79